createdAt,value
2023-08-12T00:00:26.107Z,18.70
2023-08-12T00:02:52.933Z,18.70
2023-08-12T00:05:19.758Z,18.80
2023-08-12T00:07:46.562Z,18.70
2023-08-12T00:10:13.466Z,18.70
2023-08-12T00:12:40.429Z,18.80
2023-08-12T00:15:09.102Z,18.80
2023-08-12T00:17:38.183Z,18.70
2023-08-12T00:20:09.735Z,18.50
2023-08-12T00:22:36.441Z,18.50
2023-08-12T00:25:03.917Z,18.50
2023-08-12T00:27:30.703Z,18.50
2023-08-12T00:29:57.666Z,18.60
2023-08-12T00:32:24.430Z,18.50
2023-08-12T00:34:51.057Z,18.50
2023-08-12T00:37:18.168Z,18.60
2023-08-12T00:39:45.814Z,18.40
2023-08-12T00:42:12.458Z,18.40
2023-08-12T00:44:42.437Z,18.50
2023-08-12T00:47:10.099Z,18.70
2023-08-12T00:49:38.976Z,18.70
2023-08-12T00:52:06.009Z,18.70
2023-08-12T00:54:33.655Z,18.50
2023-08-12T00:57:00.369Z,18.40
2023-08-12T00:59:27.611Z,18.30
2023-08-12T01:01:54.335Z,18.20
2023-08-12T01:04:21.279Z,18.20
2023-08-12T01:06:47.938Z,18.30
2023-08-12T01:09:14.758Z,18.50
2023-08-12T01:12:10.806Z,18.90
2023-08-12T01:14:47.331Z,19.10
2023-08-12T01:17:16.432Z,19.40
2023-08-12T01:19:45.917Z,19.50
2023-08-12T01:22:13.331Z,19.70
2023-08-12T01:24:41.834Z,19.90
2023-08-12T01:27:10.466Z,19.90
2023-08-12T01:29:49.556Z,20.00
2023-08-12T01:32:50.839Z,20.10
2023-08-12T01:35:34.141Z,20.10
2023-08-12T01:38:02.983Z,20.10
2023-08-12T01:40:32.440Z,20.10
2023-08-12T01:43:00.369Z,20.10
2023-08-12T01:45:27.233Z,20.10
2023-08-12T01:47:53.957Z,20.00
2023-08-12T01:50:22.696Z,20.00
2023-08-12T01:52:49.429Z,19.90
2023-08-12T01:55:16.708Z,19.80
2023-08-12T01:57:46.284Z,19.70
2023-08-12T02:00:13.551Z,19.70
2023-08-12T02:02:49.387Z,19.60
2023-08-12T02:05:16.465Z,19.60
2023-08-12T02:07:43.256Z,19.60
2023-08-12T02:10:10.817Z,19.50
2023-08-12T02:12:37.954Z,19.50
2023-08-12T02:15:05.038Z,19.40
2023-08-12T02:17:31.728Z,19.40
2023-08-12T02:19:58.466Z,19.30
2023-08-12T02:22:25.676Z,19.20
2023-08-12T02:24:52.461Z,19.20
2023-08-12T02:27:19.343Z,19.20
2023-08-12T02:29:46.029Z,19.20
2023-08-12T02:32:12.785Z,19.20
2023-08-12T02:34:39.555Z,19.20
2023-08-12T02:37:06.357Z,19.20
2023-08-12T02:39:33.006Z,19.20
2023-08-12T02:41:59.952Z,19.20
2023-08-12T02:44:27.621Z,19.20
2023-08-12T02:46:57.360Z,19.20
2023-08-12T02:49:24.087Z,19.20
2023-08-12T02:51:50.927Z,19.20
2023-08-12T02:54:17.620Z,19.30
2023-08-12T02:56:45.135Z,19.30
2023-08-12T02:59:11.822Z,19.20
2023-08-12T03:01:38.611Z,19.30
2023-08-12T03:04:06.188Z,19.20
2023-08-12T03:06:32.988Z,19.30
2023-08-12T03:09:00.033Z,19.20
2023-08-12T03:11:26.699Z,19.20
2023-08-12T03:13:55.629Z,19.20
2023-08-12T03:16:24.973Z,19.20
2023-08-12T03:18:52.800Z,19.20
2023-08-12T03:21:19.509Z,19.20
2023-08-12T03:23:47.045Z,19.10
2023-08-12T03:26:15.244Z,19.00
2023-08-12T03:28:41.958Z,19.10
2023-08-12T03:31:10.907Z,19.10
2023-08-12T03:33:38.726Z,19.20
2023-08-12T03:36:06.028Z,19.20
2023-08-12T03:38:32.720Z,19.20
2023-08-12T03:40:59.453Z,19.30
2023-08-12T03:43:26.354Z,19.30
2023-08-12T03:45:53.215Z,19.20
2023-08-12T03:48:21.125Z,19.10
2023-08-12T03:50:48.572Z,19.00
2023-08-12T03:53:15.305Z,19.00
2023-08-12T03:55:42.968Z,19.00
2023-08-12T03:58:10.124Z,18.90
2023-08-12T04:00:41.908Z,18.80
2023-08-12T04:03:08.632Z,18.80
2023-08-12T04:05:35.355Z,18.70
2023-08-12T04:08:03.386Z,18.70
2023-08-12T04:10:31.269Z,18.70
2023-08-12T04:12:58.455Z,18.70
2023-08-12T04:15:25.179Z,18.70
2023-08-12T04:17:52.859Z,18.80
2023-08-12T04:20:19.602Z,18.80
2023-08-12T04:22:49.044Z,18.90
2023-08-12T04:25:16.902Z,18.80
2023-08-12T04:27:43.965Z,18.80
2023-08-12T04:30:11.183Z,18.80
2023-08-12T04:32:38.489Z,18.80
2023-08-12T04:35:06.333Z,18.80
2023-08-12T04:37:33.598Z,18.90
2023-08-12T04:40:01.005Z,18.90
2023-08-12T04:42:28.526Z,18.90
2023-08-12T04:44:57.606Z,18.90
2023-08-12T04:47:25.732Z,18.90
2023-08-12T04:49:56.718Z,18.90
2023-08-12T04:52:23.392Z,19.00
2023-08-12T04:54:54.550Z,19.10
2023-08-12T04:57:22.835Z,19.10
2023-08-12T04:59:49.537Z,19.10
2023-08-12T05:02:16.790Z,19.20
2023-08-12T05:04:43.553Z,19.20
2023-08-12T05:07:10.247Z,19.20
2023-08-12T05:09:36.995Z,19.10
2023-08-12T05:12:04.015Z,19.10
2023-08-12T05:14:31.174Z,19.20
2023-08-12T05:17:00.874Z,19.30
2023-08-12T05:19:27.572Z,19.30
2023-08-12T05:21:54.445Z,19.20
2023-08-12T05:24:21.121Z,19.10
2023-08-12T05:26:47.933Z,19.00
2023-08-12T05:29:14.567Z,19.00
2023-08-12T05:31:41.405Z,19.00
2023-08-12T05:34:08.106Z,19.00
2023-08-12T05:36:34.804Z,18.90
2023-08-12T05:39:04.847Z,18.90
2023-08-12T05:41:31.530Z,18.80
2023-08-12T05:43:58.184Z,18.80
2023-08-12T05:46:24.873Z,18.70
2023-08-12T05:48:51.538Z,18.70
2023-08-12T05:51:18.195Z,18.80
2023-08-12T05:53:44.895Z,18.70
2023-08-12T05:56:11.602Z,18.90
2023-08-12T05:58:38.261Z,19.10
2023-08-12T06:01:04.952Z,19.00
2023-08-12T06:03:31.674Z,18.90
2023-08-12T06:05:58.717Z,19.00
2023-08-12T06:08:25.370Z,19.00
2023-08-12T06:10:52.070Z,18.90
2023-08-12T06:13:18.730Z,18.90
2023-08-12T06:15:45.429Z,18.80
2023-08-12T06:18:12.153Z,18.80
2023-08-12T06:20:38.842Z,18.90
2023-08-12T06:23:05.545Z,18.90
2023-08-12T06:25:32.187Z,18.90
2023-08-12T06:27:59.763Z,18.90
2023-08-12T06:30:26.491Z,19.10
2023-08-12T06:32:53.184Z,19.10
2023-08-12T06:35:19.939Z,19.30
2023-08-12T06:37:46.594Z,19.30
2023-08-12T06:40:13.799Z,19.40
2023-08-12T06:42:40.484Z,19.30
2023-08-12T06:45:08.438Z,19.30
2023-08-12T06:47:35.106Z,19.30
2023-08-12T06:50:01.937Z,19.30
2023-08-12T06:52:28.597Z,19.10
2023-08-12T06:54:55.480Z,19.00
2023-08-12T06:57:22.178Z,19.00
2023-08-12T06:59:48.890Z,19.00
2023-08-12T07:02:15.559Z,19.00
2023-08-12T07:04:42.362Z,19.00
2023-08-12T07:07:09.001Z,19.20
2023-08-12T07:09:35.647Z,19.40
2023-08-12T07:12:05.153Z,19.40
2023-08-12T07:14:32.075Z,19.40
2023-08-12T07:16:58.772Z,19.40
2023-08-12T07:19:25.476Z,19.40
2023-08-12T07:21:52.132Z,19.40
2023-08-12T07:24:19.171Z,19.50
2023-08-12T07:26:45.845Z,19.70
2023-08-12T07:29:12.622Z,19.70
2023-08-12T07:31:39.475Z,19.60
2023-08-12T07:34:06.202Z,19.60
2023-08-12T07:36:34.181Z,19.50
2023-08-12T07:39:00.983Z,19.60
2023-08-12T07:41:28.926Z,19.70
2023-08-12T07:43:55.697Z,19.90
2023-08-12T07:46:22.489Z,19.90
2023-08-12T07:48:49.181Z,20.10
2023-08-12T07:51:15.935Z,20.10
2023-08-12T07:53:42.680Z,20.20
2023-08-12T07:56:09.821Z,20.20
2023-08-12T07:58:36.530Z,20.20
2023-08-12T08:01:03.438Z,20.30
2023-08-12T08:03:30.105Z,20.50
2023-08-12T08:05:56.843Z,20.60
2023-08-12T08:08:23.510Z,20.90
2023-08-12T08:10:50.908Z,21.10
2023-08-12T08:13:17.557Z,21.30
2023-08-12T08:15:44.199Z,21.50
2023-08-12T08:18:11.044Z,21.80
2023-08-12T08:20:37.742Z,21.90
2023-08-12T08:23:04.612Z,22.00
2023-08-12T08:25:31.378Z,22.20
2023-08-12T08:27:58.106Z,22.30
2023-08-12T08:30:26.654Z,22.30
2023-08-12T08:32:53.461Z,22.20
2023-08-12T08:35:20.246Z,22.10
2023-08-12T08:37:46.966Z,22.00
2023-08-12T08:40:14.101Z,22.00
2023-08-12T08:42:45.251Z,21.70
2023-08-12T08:45:16.311Z,21.60
2023-08-12T08:47:43.894Z,21.60
2023-08-12T08:50:11.959Z,21.60
2023-08-12T08:52:38.988Z,21.50
2023-08-12T08:55:08.214Z,21.50
2023-08-12T08:57:42.337Z,21.50
2023-08-12T09:00:17.187Z,21.40
2023-08-12T09:02:47.432Z,21.30
2023-08-12T09:05:21.260Z,21.10
2023-08-12T09:07:50.080Z,21.00
2023-08-12T09:10:21.704Z,21.00
2023-08-12T09:12:49.272Z,21.00
2023-08-12T09:15:19.905Z,20.90
2023-08-12T09:17:46.900Z,21.00
2023-08-12T09:20:14.360Z,21.10
2023-08-12T09:22:43.661Z,21.30
2023-08-12T09:25:14.303Z,21.30
2023-08-12T09:27:41.058Z,21.40
2023-08-12T09:30:09.171Z,21.50
2023-08-12T09:32:36.249Z,21.60
2023-08-12T09:35:04.465Z,21.80
2023-08-12T09:37:31.215Z,22.00
2023-08-12T09:39:59.319Z,22.10
2023-08-12T09:42:26.003Z,22.10
2023-08-12T09:44:52.788Z,22.10
2023-08-12T09:47:20.336Z,22.20
2023-08-12T09:49:47.049Z,22.30
2023-08-12T09:52:14.394Z,22.40
2023-08-12T09:54:42.406Z,22.40
2023-08-12T09:57:12.635Z,22.40
2023-08-12T09:59:42.461Z,22.70
2023-08-12T10:02:21.736Z,23.00
2023-08-12T10:04:51.705Z,23.30
2023-08-12T10:07:19.152Z,23.60
2023-08-12T10:09:45.959Z,23.80
2023-08-12T10:12:15.247Z,23.70
2023-08-12T10:14:44.513Z,23.70
2023-08-12T10:17:17.725Z,24.00
2023-08-12T10:19:59.848Z,24.20
2023-08-12T10:22:31.206Z,24.50
2023-08-12T10:25:00.457Z,24.40
2023-08-12T10:27:27.849Z,24.50
2023-08-12T10:29:57.525Z,24.70
2023-08-12T10:32:28.074Z,24.70
2023-08-12T10:34:58.964Z,25.10
2023-08-12T10:37:31.991Z,25.30
2023-08-12T10:39:58.692Z,25.40
2023-08-12T10:42:45.147Z,25.20
2023-08-12T10:45:13.262Z,24.90
2023-08-12T10:47:47.510Z,24.70
2023-08-12T10:50:19.244Z,24.60
2023-08-12T10:52:46.717Z,24.70
2023-08-12T10:55:24.761Z,24.80
2023-08-12T10:57:56.364Z,25.00
2023-08-12T11:00:27.977Z,25.10
2023-08-12T11:02:57.355Z,25.00
2023-08-12T11:05:26.089Z,24.90
2023-08-12T11:08:02.167Z,24.60
2023-08-12T11:10:34.801Z,24.60
2023-08-12T11:13:03.462Z,24.60
2023-08-12T11:15:36.043Z,24.70
2023-08-12T11:18:07.282Z,24.70
2023-08-12T11:20:38.643Z,24.70
2023-08-12T11:23:06.704Z,24.60
2023-08-12T11:25:34.675Z,24.40
2023-08-12T11:28:02.135Z,24.30
2023-08-12T11:30:32.488Z,24.20
2023-08-12T11:33:01.073Z,24.10
2023-08-12T11:35:30.448Z,24.00
2023-08-12T11:37:58.978Z,24.00
2023-08-12T11:40:27.869Z,24.10
2023-08-12T11:42:55.747Z,24.20
2023-08-12T11:45:25.313Z,24.10
2023-08-12T11:47:56.405Z,24.10
2023-08-12T11:50:26.400Z,24.20
2023-08-12T11:52:54.244Z,24.50
2023-08-12T11:55:21.337Z,24.70
2023-08-12T11:57:48.209Z,24.90
2023-08-12T12:00:16.554Z,24.90
2023-08-12T12:02:47.455Z,25.00
2023-08-12T12:05:14.794Z,25.10
2023-08-12T12:07:42.067Z,25.10
2023-08-12T12:10:09.422Z,25.10
2023-08-12T12:12:37.420Z,25.10
2023-08-12T12:15:05.828Z,25.00
2023-08-12T12:17:34.220Z,24.80
2023-08-12T12:20:02.217Z,24.70
2023-08-12T12:22:49.661Z,24.50
2023-08-12T12:25:23.213Z,24.50
2023-08-12T12:27:49.948Z,24.40
2023-08-12T12:30:18.033Z,24.30
2023-08-12T12:32:46.019Z,24.00
2023-08-12T12:35:12.967Z,23.80
2023-08-12T12:37:40.049Z,23.90
2023-08-12T12:40:08.153Z,23.90
2023-08-12T12:42:34.889Z,24.00
2023-08-12T12:45:01.983Z,23.80
2023-08-12T12:47:28.647Z,23.70
2023-08-12T12:49:55.291Z,23.60
2023-08-12T12:52:22.324Z,23.70
2023-08-12T12:54:49.021Z,23.70
2023-08-12T12:57:15.779Z,23.60
2023-08-12T12:59:43.035Z,23.70
2023-08-12T13:02:09.758Z,23.80
2023-08-12T13:04:36.558Z,23.80
2023-08-12T13:07:06.976Z,23.80
2023-08-12T13:09:34.183Z,23.80
2023-08-12T13:12:01.070Z,23.80
2023-08-12T13:14:29.895Z,23.70
2023-08-12T13:16:56.633Z,23.60
2023-08-12T13:19:23.337Z,23.60
2023-08-12T13:21:50.026Z,23.60
2023-08-12T13:24:16.908Z,23.70
2023-08-12T13:26:43.583Z,23.90
2023-08-12T13:29:10.331Z,24.10
2023-08-12T13:31:37.605Z,24.30
2023-08-12T13:34:04.511Z,24.50
2023-08-12T13:36:31.609Z,24.70
2023-08-12T13:39:01.089Z,24.70
2023-08-12T13:41:28.071Z,24.70
2023-08-12T13:43:54.723Z,24.60
2023-08-12T13:46:21.425Z,24.70
2023-08-12T13:48:48.116Z,24.70
2023-08-12T13:51:14.831Z,24.90
2023-08-12T13:53:41.508Z,25.00
2023-08-12T13:56:08.193Z,25.10
2023-08-12T13:58:35.004Z,25.10
2023-08-12T14:01:01.731Z,24.90
2023-08-12T14:03:28.514Z,24.80
2023-08-12T14:05:55.250Z,24.70
2023-08-12T14:08:21.984Z,24.40
2023-08-12T14:10:48.930Z,24.10
2023-08-12T14:13:15.670Z,23.80
2023-08-12T14:15:42.485Z,23.60
2023-08-12T14:18:09.351Z,23.20
2023-08-12T14:20:36.268Z,22.80
2023-08-12T14:23:03.087Z,22.50
2023-08-12T14:25:29.811Z,22.20
2023-08-12T14:27:56.453Z,22.20
2023-08-12T14:30:26.606Z,22.10
2023-08-12T14:32:53.750Z,22.00
2023-08-12T14:35:20.844Z,22.00
2023-08-12T14:37:47.564Z,22.20
2023-08-12T14:40:14.434Z,22.60
2023-08-12T14:42:41.191Z,22.60
2023-08-12T14:45:08.710Z,22.70
2023-08-12T14:47:35.408Z,22.60
2023-08-12T14:50:02.506Z,22.60
2023-08-12T14:52:29.396Z,22.50
2023-08-12T14:54:56.586Z,22.30
2023-08-12T14:57:23.272Z,22.00
2023-08-12T14:59:51.778Z,21.80
2023-08-12T15:02:22.562Z,21.50
2023-08-12T15:04:49.734Z,21.10
2023-08-12T15:07:17.477Z,20.80
2023-08-12T15:09:44.236Z,20.60
2023-08-12T15:12:11.008Z,20.20
2023-08-12T15:14:37.724Z,19.70
2023-08-12T15:17:04.474Z,19.50
2023-08-12T15:19:31.125Z,19.20
2023-08-12T15:21:58.807Z,19.00
2023-08-12T15:24:25.531Z,18.90
2023-08-12T15:26:52.217Z,18.90
2023-08-12T15:29:18.858Z,18.90
2023-08-12T15:31:46.020Z,18.90
2023-08-12T15:34:12.674Z,19.00
2023-08-12T15:36:41.709Z,19.10
2023-08-12T15:39:09.067Z,19.30
2023-08-12T15:41:42.046Z,19.20
2023-08-12T15:44:08.739Z,19.30
2023-08-12T15:46:35.483Z,19.40
2023-08-12T15:49:02.997Z,19.40
2023-08-12T15:51:29.659Z,19.40
2023-08-12T15:53:56.393Z,19.50
2023-08-12T15:56:23.114Z,19.60
2023-08-12T15:58:49.986Z,19.60
2023-08-12T16:01:18.742Z,19.70
2023-08-12T16:03:45.641Z,19.70
2023-08-12T16:06:12.969Z,19.80
2023-08-12T16:08:39.867Z,19.90
2023-08-12T16:11:06.578Z,19.90
2023-08-12T16:13:33.220Z,19.90
2023-08-12T16:16:00.128Z,19.90
2023-08-12T16:18:26.961Z,19.90
2023-08-12T16:20:53.758Z,19.90
2023-08-12T16:23:20.419Z,20.00
2023-08-12T16:25:47.062Z,20.00
2023-08-12T16:28:13.754Z,20.00
2023-08-12T16:30:40.617Z,20.10
2023-08-12T16:33:07.315Z,20.20
2023-08-12T16:35:34.065Z,20.20
2023-08-12T16:38:00.739Z,20.20
2023-08-12T16:40:28.577Z,20.20
2023-08-12T16:42:55.309Z,20.20
2023-08-12T16:45:22.017Z,20.20
2023-08-12T16:47:48.693Z,20.10
2023-08-12T16:50:15.394Z,20.10
2023-08-12T16:52:42.074Z,20.10
2023-08-12T16:55:09.189Z,20.20
2023-08-12T16:57:35.920Z,20.20
2023-08-12T17:00:05.747Z,20.20
2023-08-12T17:02:32.728Z,20.30
2023-08-12T17:04:59.400Z,20.40
2023-08-12T17:07:26.440Z,20.20
2023-08-12T17:09:53.120Z,20.30
2023-08-12T17:12:19.962Z,20.20
2023-08-12T17:14:46.893Z,20.20
2023-08-12T17:17:13.522Z,20.20
2023-08-12T17:19:40.653Z,20.00
2023-08-12T17:22:07.322Z,19.90
2023-08-12T17:24:34.223Z,19.80
2023-08-12T17:27:01.065Z,19.80
2023-08-12T17:29:27.768Z,19.80
2023-08-12T17:31:54.511Z,19.80
2023-08-12T17:34:21.235Z,19.70
2023-08-12T17:36:48.185Z,19.70
2023-08-12T17:39:14.853Z,19.70
2023-08-12T17:41:41.526Z,19.70
2023-08-12T17:44:08.187Z,19.70
2023-08-12T17:46:35.067Z,19.70
2023-08-12T17:49:02.107Z,19.60
2023-08-12T17:51:28.807Z,19.60
2023-08-12T17:53:55.527Z,19.70
2023-08-12T17:56:22.399Z,19.60
2023-08-12T17:58:49.134Z,19.50
2023-08-12T18:01:15.986Z,19.50
2023-08-12T18:03:43.063Z,19.40
2023-08-12T18:06:09.945Z,19.40
2023-08-12T18:08:37.988Z,19.40
2023-08-12T18:11:04.720Z,19.40
2023-08-12T18:13:31.522Z,19.30
2023-08-12T18:15:58.453Z,19.30
2023-08-12T18:18:25.407Z,19.30
2023-08-12T18:20:52.137Z,19.30
2023-08-12T18:23:18.783Z,19.30
2023-08-12T18:25:45.443Z,19.30
2023-08-12T18:28:12.154Z,19.30
2023-08-12T18:30:39.516Z,19.30
2023-08-12T18:33:07.023Z,19.40
2023-08-12T18:35:34.933Z,19.50
2023-08-12T18:38:01.985Z,19.50
2023-08-12T18:40:31.707Z,19.50
2023-08-12T18:42:59.198Z,19.50
2023-08-12T18:45:25.962Z,19.50
2023-08-12T18:47:53.290Z,19.50
2023-08-12T18:50:19.969Z,19.50
2023-08-12T18:52:46.796Z,19.50
2023-08-12T18:55:14.046Z,19.50
2023-08-12T18:57:40.726Z,19.50
2023-08-12T19:00:08.089Z,19.60
2023-08-12T19:02:35.567Z,19.60
2023-08-12T19:05:03.264Z,19.50
2023-08-12T19:07:30.202Z,19.50
2023-08-12T19:09:56.967Z,19.50
2023-08-12T19:12:23.725Z,19.40
2023-08-12T19:14:50.385Z,19.40
2023-08-12T19:17:18.040Z,19.30
2023-08-12T19:19:46.000Z,19.30
2023-08-12T19:22:13.057Z,19.20
2023-08-12T19:24:40.596Z,19.20
2023-08-12T19:27:11.296Z,19.10
2023-08-12T19:29:37.964Z,19.10
2023-08-12T19:32:05.260Z,19.10
2023-08-12T19:34:34.281Z,19.00
2023-08-12T19:37:01.352Z,19.00
2023-08-12T19:39:28.068Z,19.00
2023-08-12T19:41:54.997Z,19.00
2023-08-12T19:44:21.741Z,19.00
2023-08-12T19:46:48.543Z,18.90
2023-08-12T19:49:15.240Z,18.90
2023-08-12T19:51:42.527Z,18.80
2023-08-12T19:54:09.276Z,18.70
2023-08-12T19:56:36.001Z,18.60
2023-08-12T19:59:02.711Z,18.60
2023-08-12T20:01:29.490Z,18.60
2023-08-12T20:03:56.258Z,18.60
2023-08-12T20:06:22.953Z,18.60
2023-08-12T20:08:50.199Z,18.50
2023-08-12T20:11:16.859Z,18.50
2023-08-12T20:13:43.564Z,18.40
2023-08-12T20:16:10.548Z,18.30
2023-08-12T20:18:37.331Z,18.30
2023-08-12T20:21:04.196Z,18.20
2023-08-12T20:23:30.861Z,18.20
2023-08-12T20:25:57.609Z,18.20
2023-08-12T20:28:24.295Z,18.20
2023-08-12T20:30:50.998Z,18.10
2023-08-12T20:33:17.803Z,18.00
2023-08-12T20:35:44.577Z,18.00
2023-08-12T20:38:11.951Z,18.00
2023-08-12T20:40:38.823Z,17.90
2023-08-12T20:43:05.713Z,17.80
2023-08-12T20:45:32.444Z,17.80
2023-08-12T20:47:59.162Z,17.80
2023-08-12T20:50:25.831Z,17.90
2023-08-12T20:52:52.824Z,17.80
2023-08-12T20:55:19.665Z,17.80
2023-08-12T20:57:47.343Z,17.70
2023-08-12T21:00:14.820Z,17.60
2023-08-12T21:02:46.342Z,17.50
2023-08-12T21:05:13.420Z,17.40
2023-08-12T21:07:40.261Z,17.40
2023-08-12T21:10:08.508Z,17.40
2023-08-12T21:12:35.211Z,17.30
2023-08-12T21:15:01.983Z,17.20
2023-08-12T21:17:28.717Z,17.20
2023-08-12T21:19:56.009Z,17.20
2023-08-12T21:22:22.674Z,17.20
2023-08-12T21:24:50.837Z,17.30
2023-08-12T21:27:19.209Z,17.20
2023-08-12T21:29:45.907Z,17.20
2023-08-12T21:32:12.930Z,17.10
2023-08-12T21:34:39.841Z,17.00
2023-08-12T21:37:06.511Z,16.80
2023-08-12T21:39:33.189Z,16.80
2023-08-12T21:41:59.896Z,16.80
2023-08-12T21:44:26.648Z,16.80
2023-08-12T21:46:53.351Z,16.60
2023-08-12T21:49:20.181Z,16.60
2023-08-12T21:51:46.910Z,16.60
2023-08-12T21:54:13.555Z,16.40
2023-08-12T21:56:40.322Z,16.40
2023-08-12T21:59:07.245Z,16.30
2023-08-12T22:01:33.992Z,16.30
2023-08-12T22:04:00.871Z,16.20
2023-08-12T22:06:27.528Z,16.00
2023-08-12T22:08:54.325Z,16.00
2023-08-12T22:11:25.160Z,16.00
2023-08-12T22:13:51.824Z,16.00
2023-08-12T22:16:18.539Z,16.00
2023-08-12T22:18:45.552Z,15.90
2023-08-12T22:21:12.360Z,15.90
2023-08-12T22:23:39.927Z,15.80
2023-08-12T22:26:06.627Z,15.80
2023-08-12T22:28:33.301Z,15.60
2023-08-12T22:31:00.012Z,15.60
2023-08-12T22:33:26.714Z,15.70
2023-08-12T22:35:53.424Z,15.70
2023-08-12T22:38:20.231Z,15.80
2023-08-12T22:40:46.956Z,15.80
2023-08-12T22:43:13.588Z,15.80
2023-08-12T22:45:42.913Z,15.60
2023-08-12T22:48:09.698Z,15.50
2023-08-12T22:50:36.769Z,15.30
2023-08-12T22:53:03.529Z,15.30
2023-08-12T22:55:30.191Z,15.20
2023-08-12T22:57:57.579Z,15.20
2023-08-12T23:00:24.506Z,15.20
2023-08-12T23:02:51.278Z,15.20
2023-08-12T23:05:18.216Z,15.30
2023-08-12T23:07:44.879Z,15.20
2023-08-12T23:10:11.836Z,15.10
2023-08-12T23:12:38.591Z,15.20
2023-08-12T23:15:05.893Z,15.10
2023-08-12T23:17:33.244Z,15.00
2023-08-12T23:19:59.977Z,14.80
2023-08-12T23:22:26.624Z,14.70
2023-08-12T23:24:53.299Z,14.70
2023-08-12T23:27:20.010Z,14.60
2023-08-12T23:29:46.661Z,14.50
2023-08-12T23:32:14.086Z,14.70
2023-08-12T23:34:40.830Z,14.50
2023-08-12T23:37:08.132Z,14.50
2023-08-12T23:39:34.908Z,14.60
2023-08-12T23:42:01.540Z,14.70
2023-08-12T23:44:28.205Z,14.70
2023-08-12T23:46:54.939Z,14.60
2023-08-12T23:49:21.602Z,14.60
2023-08-12T23:51:49.285Z,14.50
2023-08-12T23:54:16.096Z,14.60
2023-08-12T23:56:42.810Z,14.50
2023-08-12T23:59:09.507Z,14.30
